LPR6 EPKX-EPKX
Flight info
| Callsign | LPR6 |
|---|---|
| Flight time | 0h 0m |
| Altitude | 2000 |
| Route | DCT |
| Aircraft | EC45/L-S/C |
Departure
| Time | 2026-04-22 18:53 |
|---|---|
| Airport | Kokotowie LPR HEMS Heliport (EPKX) |
Arrival
| Time | 2026-04-22 18:53 |
|---|---|
| Airport | Kokotowie LPR HEMS Heliport (EPKX) |
| Time | Latitude | Longitude | Altitude | Speed | Heading |
|---|---|---|---|---|---|
| 2026-04-22 18:24 | 50.02238 | 20.07033 | 654 ft | 0 kts | 150° |
| 2026-04-22 18:52 | 50.02238 | 20.07028 | 656 ft | 3 kts | 149° |
| 2026-04-22 18:52 | 50.02247 | 20.07036 | 688 ft | 3 kts | 171° |
| 2026-04-22 18:52 | 50.02275 | 20.06990 | 921 ft | 11 kts | 178° |
| 2026-04-22 18:53 | 50.02334 | 20.06885 | 1214 ft | 13 kts | 317° |
| 2026-04-22 18:53 | 50.02411 | 20.06784 | 1251 ft | 30 kts | 302° |
| 2026-04-22 18:53 | 50.02571 | 20.06279 | 1276 ft | 71 kts | 293° |
| 2026-04-22 18:53 | 50.02732 | 20.05774 | 1393 ft | 43 kts | 289° |
| 2026-04-22 18:54 | 50.02828 | 20.05486 | 1306 ft | 26 kts | 279° |
| 2026-04-22 18:54 | 50.02880 | 20.05338 | 1246 ft | 8 kts | 278° |
| 2026-04-22 18:54 | 50.02918 | 20.05365 | 1223 ft | 11 kts | 285° |
| 2026-04-22 18:54 | 50.02927 | 20.05462 | 1199 ft | 9 kts | 291° |
| 2026-04-22 18:55 | 50.03045 | 20.05222 | 1209 ft | 45 kts | 290° |
| 2026-04-22 18:55 | 50.03206 | 20.04798 | 1343 ft | 39 kts | 290° |
| 2026-04-22 18:55 | 50.03281 | 20.04524 | 1396 ft | 18 kts | 283° |
| 2026-04-22 18:55 | 50.03339 | 20.04455 | 1388 ft | 7 kts | 285° |
| 2026-04-22 18:56 | 50.03372 | 20.04506 | 1306 ft | 7 kts | 293° |
| 2026-04-22 18:56 | 50.03313 | 20.04543 | 1228 ft | 12 kts | 291° |
| 2026-04-22 18:56 | 50.03274 | 20.04383 | 1197 ft | 24 kts | 275° |
| 2026-04-22 18:56 | 50.03343 | 20.04103 | 1193 ft | 24 kts | 280° |
| 2026-04-22 18:57 | 50.03420 | 20.03994 | 1215 ft | 6 kts | 282° |
| 2026-04-22 18:57 | 50.03430 | 20.04046 | 1175 ft | 8 kts | 289° |
| 2026-04-22 18:57 | 50.03451 | 20.04065 | 1151 ft | 6 kts | 291° |
| 2026-04-22 18:57 | 50.03470 | 20.03939 | 1141 ft | 18 kts | 283° |
| 2026-04-22 18:58 | 50.03498 | 20.03699 | 1134 ft | 27 kts | 277° |
| 2026-04-22 18:58 | 50.03524 | 20.03384 | 1183 ft | 28 kts | 274° |
| 2026-04-22 18:58 | 50.03538 | 20.03099 | 1276 ft | 35 kts | 273° |
| 2026-04-22 18:58 | 50.03542 | 20.02643 | 1399 ft | 47 kts | 272° |
| 2026-04-22 18:59 | 50.03550 | 20.02128 | 1478 ft | 48 kts | 270° |
| 2026-04-22 18:59 | 50.03558 | 20.01658 | 1478 ft | 41 kts | 268° |
| 2026-04-22 18:59 | 50.03571 | 20.01274 | 1477 ft | 31 kts | 268° |
| 2026-04-22 18:59 | 50.03591 | 20.00978 | 1466 ft | 24 kts | 269° |
| 2026-04-22 19:00 | 50.03611 | 20.00812 | 1459 ft | 20 kts | 271° |
| 2026-04-22 19:00 | 50.03649 | 20.00568 | 1418 ft | 39 kts | 274° |
| 2026-04-22 19:00 | 50.03721 | 19.99842 | 1392 ft | 88 kts | 279° |
| 2026-04-22 19:00 | 50.03786 | 19.98776 | 1354 ft | 104 kts | 273° |
| 2026-04-22 19:01 | 50.03825 | 19.97673 | 1450 ft | 101 kts | 273° |
| 2026-04-22 19:01 | 50.03903 | 19.96598 | 1512 ft | 99 kts | 277° |
| 2026-04-22 19:01 | 50.04022 | 19.95552 | 1589 ft | 97 kts | 281° |
| 2026-04-22 19:01 | 50.04129 | 19.94734 | 1925 ft | 51 kts | 281° |
| 2026-04-22 19:02 | 50.04140 | 19.94460 | 1733 ft | 25 kts | 271° |
| 2026-04-22 19:02 | 50.04124 | 19.94184 | 1606 ft | 35 kts | 268° |
| 2026-04-22 19:02 | 50.04124 | 19.93769 | 1562 ft | 37 kts | 268° |
| 2026-04-22 19:02 | 50.04152 | 19.93291 | 1788 ft | 46 kts | 277° |
| 2026-04-22 19:03 | 50.04194 | 19.92823 | 2071 ft | 44 kts | 283° |
| 2026-04-22 19:03 | 50.04272 | 19.92263 | 2164 ft | 66 kts | 287° |
| 2026-04-22 19:03 | 50.04406 | 19.91488 | 2142 ft | 75 kts | 288° |
| 2026-04-22 19:03 | 50.04522 | 19.90827 | 2399 ft | 54 kts | 289° |
| 2026-04-22 19:04 | 50.04551 | 19.90459 | 1847 ft | 20 kts | 273° |
| 2026-04-22 19:04 | 50.04550 | 19.90214 | 1637 ft | 33 kts | 271° |
| 2026-04-22 19:04 | 50.04587 | 19.89793 | 1468 ft | 41 kts | 271° |
| 2026-04-22 19:04 | 50.04625 | 19.89499 | 1373 ft | 42 kts | 271° |
| 2026-04-22 19:05 | 50.04694 | 19.89095 | 1274 ft | 37 kts | 274° |
| 2026-04-22 19:05 | 50.04780 | 19.88545 | 1379 ft | 75 kts | 284° |
| 2026-04-22 19:05 | 50.04888 | 19.87565 | 1417 ft | 102 kts | 276° |
| 2026-04-22 19:05 | 50.04836 | 19.86422 | 1523 ft | 109 kts | 259° |
| 2026-04-22 19:06 | 50.04813 | 19.85183 | 1525 ft | 121 kts | 272° |
| 2026-04-22 19:06 | 50.04876 | 19.83900 | 1571 ft | 117 kts | 274° |
| 2026-04-22 19:06 | 50.04961 | 19.82601 | 1519 ft | 120 kts | 275° |
| 2026-04-22 19:07 | 50.05240 | 19.80184 | 1506 ft | 119 kts | 283° |
| 2026-04-22 19:07 | 50.05424 | 19.78912 | 1466 ft | 121 kts | 278° |
| 2026-04-22 19:07 | 50.05526 | 19.77746 | 1468 ft | 94 kts | 271° |
| 2026-04-22 19:07 | 50.05537 | 19.76967 | 1374 ft | 47 kts | 263° |
| 2026-04-22 19:08 | 50.05560 | 19.76591 | 1249 ft | 40 kts | 266° |
| 2026-04-22 19:08 | 50.05603 | 19.76144 | 1227 ft | 31 kts | 268° |
| 2026-04-22 19:08 | 50.05637 | 19.75805 | 953 ft | 34 kts | 263° |
| 2026-04-22 19:08 | 50.05680 | 19.75597 | 812 ft | 11 kts | 265° |
| 2026-04-22 19:09 | 50.05687 | 19.75529 | 719 ft | 0 kts | 267° |
| 2026-04-22 19:16 | 50.05691 | 19.75527 | 724 ft | 3 kts | 267° |
| 2026-04-22 19:17 | 50.05696 | 19.75529 | 899 ft | 4 kts | 72° |
| 2026-04-22 19:17 | 50.05705 | 19.75791 | 1060 ft | 45 kts | 76° |
| 2026-04-22 19:17 | 50.05799 | 19.76459 | 1300 ft | 79 kts | 76° |
| 2026-04-22 19:17 | 50.05955 | 19.77431 | 1354 ft | 109 kts | 72° |
| 2026-04-22 19:18 | 50.06149 | 19.78550 | 1407 ft | 118 kts | 70° |
| 2026-04-22 19:18 | 50.06257 | 19.79356 | 1701 ft | 73 kts | 76° |
| 2026-04-22 19:18 | 50.06292 | 19.80319 | 1732 ft | 106 kts | 81° |
| 2026-04-22 19:18 | 50.06458 | 19.81553 | 1655 ft | 122 kts | 66° |
| 2026-04-22 19:19 | 50.06747 | 19.82805 | 1715 ft | 121 kts | 66° |
| 2026-04-22 19:19 | 50.07056 | 19.83976 | 1894 ft | 113 kts | 60° |
| 2026-04-22 19:19 | 50.07332 | 19.85110 | 1909 ft | 116 kts | 61° |
| 2026-04-22 19:19 | 50.07631 | 19.86285 | 1922 ft | 112 kts | 60° |
| 2026-04-22 19:20 | 50.07900 | 19.87382 | 1826 ft | 105 kts | 60° |
| 2026-04-22 19:20 | 50.08139 | 19.88428 | 1573 ft | 106 kts | 65° |
| 2026-04-22 19:20 | 50.08346 | 19.89499 | 1353 ft | 100 kts | 67° |
| 2026-04-22 19:20 | 50.08542 | 19.90495 | 1218 ft | 94 kts | 67° |
| 2026-04-22 19:21 | 50.08721 | 19.91405 | 1163 ft | 81 kts | 66° |
| 2026-04-22 19:21 | 50.08865 | 19.92177 | 1102 ft | 66 kts | 65° |
| 2026-04-22 19:21 | 50.08971 | 19.92786 | 1058 ft | 50 kts | 64° |
| 2026-04-22 19:21 | 50.09016 | 19.93202 | 985 ft | 33 kts | 63° |
| 2026-04-22 19:22 | 50.09068 | 19.93502 | 879 ft | 20 kts | 58° |
| 2026-04-22 19:22 | 50.09101 | 19.93637 | 824 ft | 11 kts | 61° |
| 2026-04-22 19:22 | 50.09112 | 19.93666 | 802 ft | 0 kts | 64° |
| 2026-04-22 19:30 | 50.09093 | 19.93640 | 849 ft | 16 kts | 79° |
| 2026-04-22 19:30 | 50.08965 | 19.93740 | 930 ft | 53 kts | 130° |
| 2026-04-22 19:30 | 50.08629 | 19.94402 | 945 ft | 90 kts | 128° |
| 2026-04-22 19:31 | 50.08250 | 19.95205 | 1097 ft | 100 kts | 129° |
| 2026-04-22 19:31 | 50.07776 | 19.96058 | 1146 ft | 107 kts | 132° |
| 2026-04-22 19:31 | 50.07257 | 19.96921 | 1185 ft | 109 kts | 133° |
| 2026-04-22 19:31 | 50.06739 | 19.97808 | 1079 ft | 112 kts | 131° |
| 2026-04-22 19:32 | 50.06242 | 19.98697 | 1052 ft | 106 kts | 130° |
| 2026-04-22 19:32 | 50.05755 | 19.99540 | 1229 ft | 111 kts | 135° |
| 2026-04-22 19:32 | 50.05188 | 20.00393 | 1447 ft | 112 kts | 138° |
| 2026-04-22 19:32 | 50.04594 | 20.01173 | 1715 ft | 112 kts | 142° |
| 2026-04-22 19:33 | 50.03956 | 20.01911 | 1922 ft | 117 kts | 145° |
| 2026-04-22 19:33 | 50.03368 | 20.02785 | 1722 ft | 117 kts | 122° |
| 2026-04-22 19:33 | 50.03022 | 20.03843 | 1563 ft | 103 kts | 107° |
| 2026-04-22 19:33 | 50.02806 | 20.04848 | 1528 ft | 93 kts | 101° |
| 2026-04-22 19:34 | 50.02632 | 20.05760 | 1297 ft | 85 kts | 103° |
| 2026-04-22 19:34 | 50.02453 | 20.06594 | 955 ft | 72 kts | 105° |
| 2026-04-22 19:34 | 50.02271 | 20.06970 | 743 ft | 16 kts | 120° |
| 2026-04-22 19:34 | 50.02243 | 20.07022 | 659 ft | 4 kts | 128° |
| 2026-04-22 19:35 | 50.02241 | 20.07028 | 654 ft | 0 kts | 127° |